sensor_id;sensor_type;location;lat;lon;timestamp;P1;durP1;ratioP1;P2;durP2;ratioP2
12958;SDS011;6544;51.666;6.634;2023-05-31T00:01:42;8.02;;;7.22;;
12958;SDS011;6544;51.666;6.634;2023-05-31T00:04:09;7.53;;;6.80;;
12958;SDS011;6544;51.666;6.634;2023-05-31T00:06:35;8.20;;;7.25;;
12958;SDS011;6544;51.666;6.634;2023-05-31T00:09:02;7.68;;;6.88;;
12958;SDS011;6544;51.666;6.634;2023-05-31T00:11:31;7.93;;;6.72;;
12958;SDS011;6544;51.666;6.634;2023-05-31T00:13:57;9.27;;;6.90;;
12958;SDS011;6544;51.666;6.634;2023-05-31T00:16:24;7.90;;;7.10;;
12958;SDS011;6544;51.666;6.634;2023-05-31T00:18:51;8.20;;;7.18;;
12958;SDS011;6544;51.666;6.634;2023-05-31T00:21:18;7.70;;;6.90;;
12958;SDS011;6544;51.666;6.634;2023-05-31T00:23:45;8.38;;;7.45;;
12958;SDS011;6544;51.666;6.634;2023-05-31T00:26:12;7.47;;;6.78;;
12958;SDS011;6544;51.666;6.634;2023-05-31T00:28:40;8.07;;;7.28;;
12958;SDS011;6544;51.666;6.634;2023-05-31T00:31:07;8.60;;;7.18;;
12958;SDS011;6544;51.666;6.634;2023-05-31T00:33:34;9.45;;;7.40;;
12958;SDS011;6544;51.666;6.634;2023-05-31T00:36:00;10.88;;;7.20;;
12958;SDS011;6544;51.666;6.634;2023-05-31T00:38:27;11.45;;;8.00;;
12958;SDS011;6544;51.666;6.634;2023-05-31T00:40:54;9.02;;;7.35;;
12958;SDS011;6544;51.666;6.634;2023-05-31T00:43:21;10.30;;;8.18;;
12958;SDS011;6544;51.666;6.634;2023-05-31T00:45:49;9.45;;;7.53;;
12958;SDS011;6544;51.666;6.634;2023-05-31T00:48:17;8.35;;;7.55;;
12958;SDS011;6544;51.666;6.634;2023-05-31T00:50:44;9.43;;;7.45;;
12958;SDS011;6544;51.666;6.634;2023-05-31T00:53:11;9.98;;;7.82;;
12958;SDS011;6544;51.666;6.634;2023-05-31T00:55:38;9.50;;;7.95;;
12958;SDS011;6544;51.666;6.634;2023-05-31T00:58:05;9.73;;;7.78;;
12958;SDS011;6544;51.666;6.634;2023-05-31T01:00:32;9.07;;;8.18;;
12958;SDS011;6544;51.666;6.634;2023-05-31T01:03:00;9.10;;;8.20;;
12958;SDS011;6544;51.666;6.634;2023-05-31T01:05:27;9.55;;;8.45;;
12958;SDS011;6544;51.666;6.634;2023-05-31T01:07:54;9.30;;;8.13;;
12958;SDS011;6544;51.666;6.634;2023-05-31T01:10:23;8.80;;;7.90;;
12958;SDS011;6544;51.666;6.634;2023-05-31T01:12:52;9.02;;;8.20;;
12958;SDS011;6544;51.666;6.634;2023-05-31T01:15:29;9.80;;;8.60;;
12958;SDS011;6544;51.666;6.634;2023-05-31T01:18:02;9.18;;;8.30;;
12958;SDS011;6544;51.666;6.634;2023-05-31T01:20:34;10.77;;;8.57;;
12958;SDS011;6544;51.666;6.634;2023-05-31T01:23:18;10.63;;;8.10;;
12958;SDS011;6544;51.666;6.634;2023-05-31T01:29:00;10.27;;;8.68;;
12958;SDS011;6544;51.666;6.634;2023-05-31T01:31:30;10.10;;;9.00;;
12958;SDS011;6544;51.666;6.634;2023-05-31T01:34:00;9.85;;;8.85;;
12958;SDS011;6544;51.666;6.634;2023-05-31T01:36:27;10.68;;;9.13;;
12958;SDS011;6544;51.666;6.634;2023-05-31T01:38:54;10.85;;;8.63;;
12958;SDS011;6544;51.666;6.634;2023-05-31T01:41:21;10.60;;;9.20;;
12958;SDS011;6544;51.666;6.634;2023-05-31T01:43:52;10.57;;;9.13;;
12958;SDS011;6544;51.666;6.634;2023-05-31T01:46:20;11.02;;;8.90;;
12958;SDS011;6544;51.666;6.634;2023-05-31T01:48:47;10.57;;;8.77;;
12958;SDS011;6544;51.666;6.634;2023-05-31T01:51:14;10.32;;;9.20;;
12958;SDS011;6544;51.666;6.634;2023-05-31T01:53:42;10.00;;;9.00;;
12958;SDS011;6544;51.666;6.634;2023-05-31T01:56:09;10.07;;;9.02;;
12958;SDS011;6544;51.666;6.634;2023-05-31T01:58:38;9.65;;;8.65;;
12958;SDS011;6544;51.666;6.634;2023-05-31T02:01:08;11.02;;;9.13;;
12958;SDS011;6544;51.666;6.634;2023-05-31T02:03:37;12.02;;;9.82;;
12958;SDS011;6544;51.666;6.634;2023-05-31T02:06:05;11.35;;;9.23;;
12958;SDS011;6544;51.666;6.634;2023-05-31T02:08:32;11.32;;;10.13;;
12958;SDS011;6544;51.666;6.634;2023-05-31T02:10:59;11.68;;;9.77;;
12958;SDS011;6544;51.666;6.634;2023-05-31T02:13:26;11.15;;;9.80;;
12958;SDS011;6544;51.666;6.634;2023-05-31T02:15:54;12.60;;;10.07;;
12958;SDS011;6544;51.666;6.634;2023-05-31T02:18:23;12.02;;;9.60;;
12958;SDS011;6544;51.666;6.634;2023-05-31T02:20:51;12.38;;;10.02;;
12958;SDS011;6544;51.666;6.634;2023-05-31T02:23:18;11.70;;;10.02;;
12958;SDS011;6544;51.666;6.634;2023-05-31T02:25:45;12.98;;;10.38;;
12958;SDS011;6544;51.666;6.634;2023-05-31T02:28:13;10.70;;;9.60;;
12958;SDS011;6544;51.666;6.634;2023-05-31T02:30:40;12.48;;;10.55;;
12958;SDS011;6544;51.666;6.634;2023-05-31T02:33:08;13.57;;;10.38;;
12958;SDS011;6544;51.666;6.634;2023-05-31T02:35:36;12.10;;;10.48;;
12958;SDS011;6544;51.666;6.634;2023-05-31T02:38:03;13.90;;;10.80;;
12958;SDS011;6544;51.666;6.634;2023-05-31T02:40:30;11.65;;;10.32;;
12958;SDS011;6544;51.666;6.634;2023-05-31T02:42:57;12.73;;;10.82;;
12958;SDS011;6544;51.666;6.634;2023-05-31T02:45:23;11.85;;;10.40;;
12958;SDS011;6544;51.666;6.634;2023-05-31T02:47:50;12.55;;;10.63;;
12958;SDS011;6544;51.666;6.634;2023-05-31T02:50:17;13.25;;;10.00;;
12958;SDS011;6544;51.666;6.634;2023-05-31T02:52:45;12.05;;;10.43;;
12958;SDS011;6544;51.666;6.634;2023-05-31T02:55:12;11.27;;;10.00;;
12958;SDS011;6544;51.666;6.634;2023-05-31T02:57:39;12.02;;;10.52;;
12958;SDS011;6544;51.666;6.634;2023-05-31T03:00:06;12.55;;;10.50;;
12958;SDS011;6544;51.666;6.634;2023-05-31T03:02:38;15.57;;;10.85;;
12958;SDS011;6544;51.666;6.634;2023-05-31T03:05:05;12.60;;;10.15;;
12958;SDS011;6544;51.666;6.634;2023-05-31T03:07:34;13.43;;;10.77;;
12958;SDS011;6544;51.666;6.634;2023-05-31T03:10:02;13.10;;;10.45;;
12958;SDS011;6544;51.666;6.634;2023-05-31T03:12:30;14.60;;;11.38;;
12958;SDS011;6544;51.666;6.634;2023-05-31T03:14:57;13.93;;;10.45;;
12958;SDS011;6544;51.666;6.634;2023-05-31T03:17:24;14.90;;;11.63;;
12958;SDS011;6544;51.666;6.634;2023-05-31T03:19:51;15.05;;;10.93;;
12958;SDS011;6544;51.666;6.634;2023-05-31T03:22:18;13.57;;;11.23;;
12958;SDS011;6544;51.666;6.634;2023-05-31T03:24:45;16.48;;;11.50;;
12958;SDS011;6544;51.666;6.634;2023-05-31T03:27:14;15.30;;;11.20;;
12958;SDS011;6544;51.666;6.634;2023-05-31T03:29:41;13.52;;;10.68;;
12958;SDS011;6544;51.666;6.634;2023-05-31T03:32:09;17.70;;;11.60;;
12958;SDS011;6544;51.666;6.634;2023-05-31T03:34:35;13.98;;;11.38;;
12958;SDS011;6544;51.666;6.634;2023-05-31T03:37:02;16.27;;;11.82;;
12958;SDS011;6544;51.666;6.634;2023-05-31T03:39:30;16.20;;;11.48;;
12958;SDS011;6544;51.666;6.634;2023-05-31T03:41:57;16.33;;;11.50;;
12958;SDS011;6544;51.666;6.634;2023-05-31T03:44:27;15.80;;;10.95;;
12958;SDS011;6544;51.666;6.634;2023-05-31T03:46:54;15.75;;;11.85;;
12958;SDS011;6544;51.666;6.634;2023-05-31T03:49:21;16.83;;;11.50;;
12958;SDS011;6544;51.666;6.634;2023-05-31T03:51:48;15.20;;;11.35;;
12958;SDS011;6544;51.666;6.634;2023-05-31T03:54:15;16.92;;;11.73;;
12958;SDS011;6544;51.666;6.634;2023-05-31T03:56:42;14.95;;;11.30;;
12958;SDS011;6544;51.666;6.634;2023-05-31T03:59:09;16.23;;;12.18;;
12958;SDS011;6544;51.666;6.634;2023-05-31T04:01:37;13.52;;;11.35;;
12958;SDS011;6544;51.666;6.634;2023-05-31T04:04:04;14.15;;;11.30;;
12958;SDS011;6544;51.666;6.634;2023-05-31T04:06:31;17.73;;;12.02;;
12958;SDS011;6544;51.666;6.634;2023-05-31T04:08:58;15.90;;;11.55;;
12958;SDS011;6544;51.666;6.634;2023-05-31T04:11:25;17.30;;;12.23;;
12958;SDS011;6544;51.666;6.634;2023-05-31T04:13:52;16.25;;;12.20;;
12958;SDS011;6544;51.666;6.634;2023-05-31T04:16:19;20.15;;;12.23;;
12958;SDS011;6544;51.666;6.634;2023-05-31T04:18:47;17.38;;;11.43;;
12958;SDS011;6544;51.666;6.634;2023-05-31T04:21:14;14.05;;;11.38;;
12958;SDS011;6544;51.666;6.634;2023-05-31T04:23:40;17.55;;;11.95;;
12958;SDS011;6544;51.666;6.634;2023-05-31T04:26:08;18.35;;;11.90;;
12958;SDS011;6544;51.666;6.634;2023-05-31T04:28:41;17.08;;;11.45;;
12958;SDS011;6544;51.666;6.634;2023-05-31T04:31:08;14.77;;;11.82;;
12958;SDS011;6544;51.666;6.634;2023-05-31T04:33:35;17.33;;;12.60;;
12958;SDS011;6544;51.666;6.634;2023-05-31T04:36:04;17.35;;;12.07;;
12958;SDS011;6544;51.666;6.634;2023-05-31T04:38:33;17.48;;;11.68;;
12958;SDS011;6544;51.666;6.634;2023-05-31T04:41:00;19.63;;;12.40;;
12958;SDS011;6544;51.666;6.634;2023-05-31T04:43:29;15.00;;;10.98;;
12958;SDS011;6544;51.666;6.634;2023-05-31T04:45:56;16.02;;;11.35;;
12958;SDS011;6544;51.666;6.634;2023-05-31T04:48:25;17.52;;;12.43;;
12958;SDS011;6544;51.666;6.634;2023-05-31T04:50:52;15.95;;;11.45;;
12958;SDS011;6544;51.666;6.634;2023-05-31T04:53:21;16.42;;;12.43;;
12958;SDS011;6544;51.666;6.634;2023-05-31T04:55:48;18.05;;;12.02;;
12958;SDS011;6544;51.666;6.634;2023-05-31T04:58:16;17.15;;;11.85;;
12958;SDS011;6544;51.666;6.634;2023-05-31T05:00:44;20.90;;;11.65;;
12958;SDS011;6544;51.666;6.634;2023-05-31T05:03:11;17.83;;;11.70;;
12958;SDS011;6544;51.666;6.634;2023-05-31T05:05:38;15.63;;;12.15;;
12958;SDS011;6544;51.666;6.634;2023-05-31T05:08:05;18.00;;;11.60;;
12958;SDS011;6544;51.666;6.634;2023-05-31T05:10:34;18.95;;;12.25;;
12958;SDS011;6544;51.666;6.634;2023-05-31T05:13:00;13.02;;;11.00;;
12958;SDS011;6544;51.666;6.634;2023-05-31T05:15:27;18.23;;;12.07;;
12958;SDS011;6544;51.666;6.634;2023-05-31T05:17:54;15.60;;;11.25;;
12958;SDS011;6544;51.666;6.634;2023-05-31T05:20:21;14.82;;;11.73;;
12958;SDS011;6544;51.666;6.634;2023-05-31T05:22:51;15.98;;;11.25;;
12958;SDS011;6544;51.666;6.634;2023-05-31T05:25:18;18.85;;;11.40;;
12958;SDS011;6544;51.666;6.634;2023-05-31T05:27:48;16.50;;;11.57;;
12958;SDS011;6544;51.666;6.634;2023-05-31T05:30:16;13.88;;;11.15;;
12958;SDS011;6544;51.666;6.634;2023-05-31T05:32:43;16.33;;;11.35;;
12958;SDS011;6544;51.666;6.634;2023-05-31T05:35:10;14.30;;;11.25;;
12958;SDS011;6544;51.666;6.634;2023-05-31T05:37:37;14.57;;;10.80;;
12958;SDS011;6544;51.666;6.634;2023-05-31T05:40:05;16.52;;;11.55;;
12958;SDS011;6544;51.666;6.634;2023-05-31T05:42:33;15.73;;;11.45;;
12958;SDS011;6544;51.666;6.634;2023-05-31T05:45:04;18.58;;;11.40;;
12958;SDS011;6544;51.666;6.634;2023-05-31T05:47:34;13.10;;;10.23;;
12958;SDS011;6544;51.666;6.634;2023-05-31T05:50:02;15.70;;;10.30;;
12958;SDS011;6544;51.666;6.634;2023-05-31T05:52:29;14.98;;;10.73;;
12958;SDS011;6544;51.666;6.634;2023-05-31T05:54:56;14.25;;;10.27;;
12958;SDS011;6544;51.666;6.634;2023-05-31T05:57:23;14.90;;;10.80;;
12958;SDS011;6544;51.666;6.634;2023-05-31T05:59:51;16.02;;;10.25;;
12958;SDS011;6544;51.666;6.634;2023-05-31T06:02:20;14.23;;;10.23;;
12958;SDS011;6544;51.666;6.634;2023-05-31T06:04:46;15.07;;;10.65;;
12958;SDS011;6544;51.666;6.634;2023-05-31T06:07:14;14.98;;;10.57;;
12958;SDS011;6544;51.666;6.634;2023-05-31T06:09:41;16.25;;;9.82;;
12958;SDS011;6544;51.666;6.634;2023-05-31T06:12:08;18.15;;;10.23;;
12958;SDS011;6544;51.666;6.634;2023-05-31T06:14:36;15.50;;;10.68;;
12958;SDS011;6544;51.666;6.634;2023-05-31T06:17:02;16.23;;;10.32;;
12958;SDS011;6544;51.666;6.634;2023-05-31T06:19:31;17.45;;;10.13;;
12958;SDS011;6544;51.666;6.634;2023-05-31T06:21:58;18.23;;;10.85;;
12958;SDS011;6544;51.666;6.634;2023-05-31T06:24:25;15.32;;;9.80;;
12958;SDS011;6544;51.666;6.634;2023-05-31T06:26:52;12.98;;;9.82;;
12958;SDS011;6544;51.666;6.634;2023-05-31T06:29:19;16.38;;;9.80;;
12958;SDS011;6544;51.666;6.634;2023-05-31T06:31:46;14.85;;;9.13;;
12958;SDS011;6544;51.666;6.634;2023-05-31T06:34:13;15.30;;;10.20;;
12958;SDS011;6544;51.666;6.634;2023-05-31T06:36:42;12.90;;;9.07;;
12958;SDS011;6544;51.666;6.634;2023-05-31T06:39:09;12.57;;;9.07;;
12958;SDS011;6544;51.666;6.634;2023-05-31T06:41:36;12.05;;;8.20;;
12958;SDS011;6544;51.666;6.634;2023-05-31T06:44:03;16.48;;;8.70;;
12958;SDS011;6544;51.666;6.634;2023-05-31T06:46:30;11.88;;;8.23;;
12958;SDS011;6544;51.666;6.634;2023-05-31T06:48:57;14.70;;;8.20;;
12958;SDS011;6544;51.666;6.634;2023-05-31T06:51:24;12.23;;;8.00;;
12958;SDS011;6544;51.666;6.634;2023-05-31T06:53:53;14.57;;;8.25;;
12958;SDS011;6544;51.666;6.634;2023-05-31T06:56:20;12.70;;;7.50;;
12958;SDS011;6544;51.666;6.634;2023-05-31T06:58:47;11.30;;;7.28;;
12958;SDS011;6544;51.666;6.634;2023-05-31T07:01:14;11.90;;;7.35;;
12958;SDS011;6544;51.666;6.634;2023-05-31T07:03:41;12.65;;;7.82;;
12958;SDS011;6544;51.666;6.634;2023-05-31T07:06:08;11.80;;;7.68;;
12958;SDS011;6544;51.666;6.634;2023-05-31T07:08:34;12.02;;;7.35;;
12958;SDS011;6544;51.666;6.634;2023-05-31T07:11:03;14.70;;;7.88;;
12958;SDS011;6544;51.666;6.634;2023-05-31T07:13:30;14.90;;;7.13;;
12958;SDS011;6544;51.666;6.634;2023-05-31T07:15:56;15.15;;;8.60;;
12958;SDS011;6544;51.666;6.634;2023-05-31T07:18:26;10.63;;;7.72;;
12958;SDS011;6544;51.666;6.634;2023-05-31T07:20:53;11.18;;;7.85;;
12958;SDS011;6544;51.666;6.634;2023-05-31T07:23:21;13.05;;;8.05;;
12958;SDS011;6544;51.666;6.634;2023-05-31T07:25:49;14.18;;;7.70;;
12958;SDS011;6544;51.666;6.634;2023-05-31T07:28:17;12.65;;;7.60;;
12958;SDS011;6544;51.666;6.634;2023-05-31T07:30:47;10.13;;;7.07;;
12958;SDS011;6544;51.666;6.634;2023-05-31T07:33:14;14.25;;;7.82;;
12958;SDS011;6544;51.666;6.634;2023-05-31T07:35:41;12.52;;;7.30;;
12958;SDS011;6544;51.666;6.634;2023-05-31T07:38:09;13.30;;;7.38;;
12958;SDS011;6544;51.666;6.634;2023-05-31T07:40:36;11.35;;;7.18;;
12958;SDS011;6544;51.666;6.634;2023-05-31T07:43:03;11.35;;;7.57;;
12958;SDS011;6544;51.666;6.634;2023-05-31T07:45:31;12.35;;;7.45;;
12958;SDS011;6544;51.666;6.634;2023-05-31T07:47:58;13.02;;;7.05;;
12958;SDS011;6544;51.666;6.634;2023-05-31T07:50:25;9.35;;;6.57;;
12958;SDS011;6544;51.666;6.634;2023-05-31T07:52:52;9.85;;;6.60;;
12958;SDS011;6544;51.666;6.634;2023-05-31T07:55:19;13.80;;;5.90;;
12958;SDS011;6544;51.666;6.634;2023-05-31T07:57:46;11.07;;;6.63;;
12958;SDS011;6544;51.666;6.634;2023-05-31T08:00:13;12.75;;;6.63;;
12958;SDS011;6544;51.666;6.634;2023-05-31T08:02:41;10.95;;;5.85;;
12958;SDS011;6544;51.666;6.634;2023-05-31T08:05:08;10.10;;;5.78;;
12958;SDS011;6544;51.666;6.634;2023-05-31T08:07:35;12.15;;;5.78;;
12958;SDS011;6544;51.666;6.634;2023-05-31T08:10:02;11.13;;;5.20;;
12958;SDS011;6544;51.666;6.634;2023-05-31T08:12:30;10.65;;;4.82;;
12958;SDS011;6544;51.666;6.634;2023-05-31T08:14:57;11.85;;;5.70;;
12958;SDS011;6544;51.666;6.634;2023-05-31T08:17:25;9.05;;;5.70;;
12958;SDS011;6544;51.666;6.634;2023-05-31T08:19:53;11.52;;;6.07;;
12958;SDS011;6544;51.666;6.634;2023-05-31T08:22:20;10.43;;;5.10;;
12958;SDS011;6544;51.666;6.634;2023-05-31T08:24:47;11.30;;;5.30;;
12958;SDS011;6544;51.666;6.634;2023-05-31T08:27:14;12.15;;;5.72;;
12958;SDS011;6544;51.666;6.634;2023-05-31T08:29:42;9.80;;;5.75;;
12958;SDS011;6544;51.666;6.634;2023-05-31T08:32:09;10.65;;;6.00;;
12958;SDS011;6544;51.666;6.634;2023-05-31T08:34:36;14.38;;;6.47;;
12958;SDS011;6544;51.666;6.634;2023-05-31T08:37:04;10.05;;;5.43;;
12958;SDS011;6544;51.666;6.634;2023-05-31T08:39:31;12.95;;;5.15;;
12958;SDS011;6544;51.666;6.634;2023-05-31T08:41:58;8.70;;;4.20;;
12958;SDS011;6544;51.666;6.634;2023-05-31T08:44:26;10.48;;;4.80;;
12958;SDS011;6544;51.666;6.634;2023-05-31T08:46:55;8.18;;;4.50;;
12958;SDS011;6544;51.666;6.634;2023-05-31T08:49:24;7.18;;;3.83;;
12958;SDS011;6544;51.666;6.634;2023-05-31T08:51:52;8.93;;;3.58;;
12958;SDS011;6544;51.666;6.634;2023-05-31T08:54:22;10.65;;;3.50;;
12958;SDS011;6544;51.666;6.634;2023-05-31T08:56:50;7.20;;;3.10;;
12958;SDS011;6544;51.666;6.634;2023-05-31T08:59:18;8.95;;;3.63;;
12958;SDS011;6544;51.666;6.634;2023-05-31T09:01:45;6.07;;;3.50;;
12958;SDS011;6544;51.666;6.634;2023-05-31T09:04:13;6.50;;;3.80;;
12958;SDS011;6544;51.666;6.634;2023-05-31T09:06:41;6.80;;;3.40;;
12958;SDS011;6544;51.666;6.634;2023-05-31T09:09:07;8.38;;;3.22;;
12958;SDS011;6544;51.666;6.634;2023-05-31T09:11:36;8.00;;;3.50;;
12958;SDS011;6544;51.666;6.634;2023-05-31T09:14:05;10.85;;;3.88;;
12958;SDS011;6544;51.666;6.634;2023-05-31T09:16:33;6.32;;;2.97;;
12958;SDS011;6544;51.666;6.634;2023-05-31T09:19:02;8.73;;;3.90;;
12958;SDS011;6544;51.666;6.634;2023-05-31T09:21:33;8.23;;;3.47;;
12958;SDS011;6544;51.666;6.634;2023-05-31T09:24:04;9.60;;;3.53;;
12958;SDS011;6544;51.666;6.634;2023-05-31T09:26:31;6.43;;;2.78;;
12958;SDS011;6544;51.666;6.634;2023-05-31T09:29:00;6.63;;;2.92;;
12958;SDS011;6544;51.666;6.634;2023-05-31T09:31:27;8.68;;;3.17;;
12958;SDS011;6544;51.666;6.634;2023-05-31T09:33:54;10.35;;;3.03;;
12958;SDS011;6544;51.666;6.634;2023-05-31T09:36:23;10.52;;;3.60;;
12958;SDS011;6544;51.666;6.634;2023-05-31T09:38:59;7.28;;;3.13;;
12958;SDS011;6544;51.666;6.634;2023-05-31T09:41:28;5.88;;;2.83;;
12958;SDS011;6544;51.666;6.634;2023-05-31T09:43:57;6.72;;;3.10;;
12958;SDS011;6544;51.666;6.634;2023-05-31T09:46:25;9.15;;;2.90;;
12958;SDS011;6544;51.666;6.634;2023-05-31T09:48:56;6.47;;;2.42;;
12958;SDS011;6544;51.666;6.634;2023-05-31T09:51:25;5.30;;;3.00;;
12958;SDS011;6544;51.666;6.634;2023-05-31T09:53:52;5.40;;;2.70;;
12958;SDS011;6544;51.666;6.634;2023-05-31T09:56:20;11.85;;;2.80;;
12958;SDS011;6544;51.666;6.634;2023-05-31T09:58:48;5.72;;;2.40;;
12958;SDS011;6544;51.666;6.634;2023-05-31T10:01:16;5.22;;;2.50;;
12958;SDS011;6544;51.666;6.634;2023-05-31T10:03:44;9.85;;;2.67;;
12958;SDS011;6544;51.666;6.634;2023-05-31T10:06:13;6.03;;;2.30;;
12958;SDS011;6544;51.666;6.634;2023-05-31T10:08:42;8.32;;;2.75;;
12958;SDS011;6544;51.666;6.634;2023-05-31T10:11:10;7.25;;;2.60;;
12958;SDS011;6544;51.666;6.634;2023-05-31T10:13:42;6.43;;;2.63;;
12958;SDS011;6544;51.666;6.634;2023-05-31T10:16:13;6.18;;;2.38;;
12958;SDS011;6544;51.666;6.634;2023-05-31T10:18:43;5.15;;;2.67;;
12958;SDS011;6544;51.666;6.634;2023-05-31T10:21:15;6.65;;;2.47;;
12958;SDS011;6544;51.666;6.634;2023-05-31T10:23:49;4.25;;;2.40;;
12958;SDS011;6544;51.666;6.634;2023-05-31T10:26:22;5.53;;;2.53;;
12958;SDS011;6544;51.666;6.634;2023-05-31T10:28:59;6.93;;;2.33;;
12958;SDS011;6544;51.666;6.634;2023-05-31T10:31:33;4.95;;;2.20;;
12958;SDS011;6544;51.666;6.634;2023-05-31T10:34:11;6.75;;;2.40;;
12958;SDS011;6544;51.666;6.634;2023-05-31T10:36:45;4.70;;;2.58;;
12958;SDS011;6544;51.666;6.634;2023-05-31T10:39:13;6.10;;;2.38;;
12958;SDS011;6544;51.666;6.634;2023-05-31T10:41:45;6.35;;;2.50;;
12958;SDS011;6544;51.666;6.634;2023-05-31T10:44:17;5.85;;;2.22;;
12958;SDS011;6544;51.666;6.634;2023-05-31T10:46:50;6.10;;;2.55;;
12958;SDS011;6544;51.666;6.634;2023-05-31T10:49:22;3.67;;;2.22;;
12958;SDS011;6544;51.666;6.634;2023-05-31T10:51:50;7.30;;;2.30;;
12958;SDS011;6544;51.666;6.634;2023-05-31T10:54:17;5.60;;;2.40;;
12958;SDS011;6544;51.666;6.634;2023-05-31T10:56:51;5.45;;;2.35;;
12958;SDS011;6544;51.666;6.634;2023-05-31T10:59:19;5.53;;;2.38;;
12958;SDS011;6544;51.666;6.634;2023-05-31T11:01:46;5.40;;;2.40;;
12958;SDS011;6544;51.666;6.634;2023-05-31T11:04:19;7.80;;;2.55;;
12958;SDS011;6544;51.666;6.634;2023-05-31T11:06:51;6.75;;;2.60;;
12958;SDS011;6544;51.666;6.634;2023-05-31T11:09:20;6.03;;;2.33;;
12958;SDS011;6544;51.666;6.634;2023-05-31T11:11:49;5.30;;;2.42;;
12958;SDS011;6544;51.666;6.634;2023-05-31T11:14:27;5.97;;;2.40;;
12958;SDS011;6544;51.666;6.634;2023-05-31T11:17:14;8.70;;;2.67;;
12958;SDS011;6544;51.666;6.634;2023-05-31T11:19:50;5.22;;;2.53;;
12958;SDS011;6544;51.666;6.634;2023-05-31T11:22:21;3.28;;;2.10;;
12958;SDS011;6544;51.666;6.634;2023-05-31T11:24:51;11.10;;;2.80;;
12958;SDS011;6544;51.666;6.634;2023-05-31T11:27:19;4.13;;;2.20;;
12958;SDS011;6544;51.666;6.634;2023-05-31T11:29:56;8.65;;;2.60;;
12958;SDS011;6544;51.666;6.634;2023-05-31T11:35:35;5.68;;;2.40;;
12958;SDS011;6544;51.666;6.634;2023-05-31T11:38:03;5.28;;;2.45;;
12958;SDS011;6544;51.666;6.634;2023-05-31T11:40:31;5.35;;;2.35;;
12958;SDS011;6544;51.666;6.634;2023-05-31T11:43:04;7.43;;;2.40;;
12958;SDS011;6544;51.666;6.634;2023-05-31T11:45:32;6.57;;;2.90;;
12958;SDS011;6544;51.666;6.634;2023-05-31T11:48:06;5.88;;;2.60;;
12958;SDS011;6544;51.666;6.634;2023-05-31T11:50:47;6.30;;;2.80;;
12958;SDS011;6544;51.666;6.634;2023-05-31T11:53:15;6.00;;;3.00;;
12958;SDS011;6544;51.666;6.634;2023-05-31T11:55:44;5.00;;;2.55;;
12958;SDS011;6544;51.666;6.634;2023-05-31T11:58:13;8.40;;;3.05;;
12958;SDS011;6544;51.666;6.634;2023-05-31T12:00:42;5.38;;;3.10;;
12958;SDS011;6544;51.666;6.634;2023-05-31T12:03:13;5.60;;;2.47;;
12958;SDS011;6544;51.666;6.634;2023-05-31T12:05:42;10.55;;;2.97;;
12958;SDS011;6544;51.666;6.634;2023-05-31T12:08:11;7.00;;;3.03;;
12958;SDS011;6544;51.666;6.634;2023-05-31T12:10:40;7.78;;;2.72;;
12958;SDS011;6544;51.666;6.634;2023-05-31T12:13:07;9.30;;;3.10;;
12958;SDS011;6544;51.666;6.634;2023-05-31T12:15:35;6.63;;;2.95;;
12958;SDS011;6544;51.666;6.634;2023-05-31T12:18:02;7.15;;;2.85;;
12958;SDS011;6544;51.666;6.634;2023-05-31T12:20:29;7.95;;;3.25;;
12958;SDS011;6544;51.666;6.634;2023-05-31T12:23:08;6.88;;;3.00;;
12958;SDS011;6544;51.666;6.634;2023-05-31T12:25:37;9.20;;;2.70;;
12958;SDS011;6544;51.666;6.634;2023-05-31T12:28:10;6.82;;;2.78;;
12958;SDS011;6544;51.666;6.634;2023-05-31T12:30:40;6.05;;;2.78;;
12958;SDS011;6544;51.666;6.634;2023-05-31T12:33:09;7.90;;;2.97;;
12958;SDS011;6544;51.666;6.634;2023-05-31T12:35:39;9.35;;;3.28;;
12958;SDS011;6544;51.666;6.634;2023-05-31T12:38:06;6.22;;;2.90;;
12958;SDS011;6544;51.666;6.634;2023-05-31T12:40:37;6.63;;;2.90;;
12958;SDS011;6544;51.666;6.634;2023-05-31T12:43:06;5.18;;;2.50;;
12958;SDS011;6544;51.666;6.634;2023-05-31T12:45:37;6.95;;;2.85;;
12958;SDS011;6544;51.666;6.634;2023-05-31T12:48:06;5.68;;;2.80;;
12958;SDS011;6544;51.666;6.634;2023-05-31T12:50:43;5.60;;;2.78;;
12958;SDS011;6544;51.666;6.634;2023-05-31T12:53:10;6.13;;;2.72;;
12958;SDS011;6544;51.666;6.634;2023-05-31T12:55:39;6.95;;;2.95;;
12958;SDS011;6544;51.666;6.634;2023-05-31T12:58:06;9.90;;;3.10;;
12958;SDS011;6544;51.666;6.634;2023-05-31T13:00:33;7.80;;;3.00;;
12958;SDS011;6544;51.666;6.634;2023-05-31T13:03:01;9.27;;;3.20;;
12958;SDS011;6544;51.666;6.634;2023-05-31T13:05:28;4.72;;;2.60;;
12958;SDS011;6544;51.666;6.634;2023-05-31T13:07:55;5.35;;;2.60;;
12958;SDS011;6544;51.666;6.634;2023-05-31T13:10:22;8.05;;;2.72;;
12958;SDS011;6544;51.666;6.634;2023-05-31T13:12:50;6.18;;;2.92;;
12958;SDS011;6544;51.666;6.634;2023-05-31T13:15:17;4.18;;;2.50;;
12958;SDS011;6544;51.666;6.634;2023-05-31T13:17:44;4.40;;;2.75;;
12958;SDS011;6544;51.666;6.634;2023-05-31T13:20:11;7.90;;;2.80;;
12958;SDS011;6544;51.666;6.634;2023-05-31T13:22:38;6.55;;;3.00;;
12958;SDS011;6544;51.666;6.634;2023-05-31T13:25:06;8.25;;;3.03;;
12958;SDS011;6544;51.666;6.634;2023-05-31T13:27:34;8.57;;;2.80;;
12958;SDS011;6544;51.666;6.634;2023-05-31T13:30:02;5.22;;;2.95;;
12958;SDS011;6544;51.666;6.634;2023-05-31T13:32:30;5.15;;;2.83;;
12958;SDS011;6544;51.666;6.634;2023-05-31T13:34:57;7.63;;;2.85;;
12958;SDS011;6544;51.666;6.634;2023-05-31T13:37:24;7.35;;;3.13;;
12958;SDS011;6544;51.666;6.634;2023-05-31T13:39:51;8.70;;;2.90;;
12958;SDS011;6544;51.666;6.634;2023-05-31T13:42:20;5.32;;;2.70;;
12958;SDS011;6544;51.666;6.634;2023-05-31T13:44:47;7.45;;;2.97;;
12958;SDS011;6544;51.666;6.634;2023-05-31T13:47:15;7.80;;;3.05;;
12958;SDS011;6544;51.666;6.634;2023-05-31T13:49:43;6.65;;;2.95;;
12958;SDS011;6544;51.666;6.634;2023-05-31T13:52:10;5.55;;;2.63;;
12958;SDS011;6544;51.666;6.634;2023-05-31T13:54:38;6.43;;;2.85;;
12958;SDS011;6544;51.666;6.634;2023-05-31T13:57:06;6.35;;;2.95;;
12958;SDS011;6544;51.666;6.634;2023-05-31T13:59:33;5.03;;;2.65;;
12958;SDS011;6544;51.666;6.634;2023-05-31T14:02:00;12.07;;;2.95;;
12958;SDS011;6544;51.666;6.634;2023-05-31T14:04:28;5.35;;;2.90;;
12958;SDS011;6544;51.666;6.634;2023-05-31T14:06:55;9.40;;;3.20;;
12958;SDS011;6544;51.666;6.634;2023-05-31T14:09:22;7.43;;;2.88;;
12958;SDS011;6544;51.666;6.634;2023-05-31T14:11:49;5.22;;;2.83;;
12958;SDS011;6544;51.666;6.634;2023-05-31T14:14:17;6.25;;;2.85;;
12958;SDS011;6544;51.666;6.634;2023-05-31T14:16:43;6.95;;;3.00;;
12958;SDS011;6544;51.666;6.634;2023-05-31T14:19:10;9.52;;;2.75;;
12958;SDS011;6544;51.666;6.634;2023-05-31T14:21:39;6.45;;;3.13;;
12958;SDS011;6544;51.666;6.634;2023-05-31T14:24:06;7.57;;;3.13;;
12958;SDS011;6544;51.666;6.634;2023-05-31T14:26:33;8.23;;;3.30;;
12958;SDS011;6544;51.666;6.634;2023-05-31T14:28:59;6.28;;;2.80;;
12958;SDS011;6544;51.666;6.634;2023-05-31T14:31:27;6.07;;;2.80;;
12958;SDS011;6544;51.666;6.634;2023-05-31T14:33:54;5.82;;;2.55;;
12958;SDS011;6544;51.666;6.634;2023-05-31T14:36:21;7.07;;;3.20;;
12958;SDS011;6544;51.666;6.634;2023-05-31T14:38:49;9.52;;;3.05;;
12958;SDS011;6544;51.666;6.634;2023-05-31T14:41:16;6.13;;;2.70;;
12958;SDS011;6544;51.666;6.634;2023-05-31T14:43:43;5.88;;;2.80;;
12958;SDS011;6544;51.666;6.634;2023-05-31T14:46:11;8.25;;;2.83;;
12958;SDS011;6544;51.666;6.634;2023-05-31T14:48:39;8.63;;;2.60;;
12958;SDS011;6544;51.666;6.634;2023-05-31T14:51:06;5.63;;;2.40;;
12958;SDS011;6544;51.666;6.634;2023-05-31T14:53:33;8.93;;;2.67;;
12958;SDS011;6544;51.666;6.634;2023-05-31T14:56:01;6.95;;;2.92;;
12958;SDS011;6544;51.666;6.634;2023-05-31T14:58:28;6.30;;;2.63;;
12958;SDS011;6544;51.666;6.634;2023-05-31T15:00:57;7.90;;;2.72;;
12958;SDS011;6544;51.666;6.634;2023-05-31T15:03:24;7.00;;;2.75;;